Padul, Spain
Current Conditions -  °F | °C
As of 1:00 PM on Thursday 23 Oct 2014 (Local Time) from LEGA Reporting Station
Clear Clear  
Wind Chill: 21°   Ceiling: Unl
Heat Index: 21°   Visibility: 6mi
Dew Point:   Wind: 0mph
Humidity: 28%   Direction: NA
Pressure: 30.24"   Gusts: NA
Location:  37.02°N, 3.63°W
Report Text: LEGA 231100Z 00000KT CAVOK 21/02 Q1024
Loading
Personal Weather Stations






























Interactive Weather Map
Tropical Storm Tracking
New forecast layout! Learn more

10-Day Weather Forecast

Advertisements
Track Severe Weather on mobile